EZY76FD EGCC-EGHQ
Flight info
| Callsign | EZY76FD |
|---|---|
| Flight time | 0h 47m |
| Altitude | 23000 |
| Route | KUXEM P17 ZESPE/N0363F220 N92 EXMOR |
| Aircraft | A320/M-SDE2E3FGHIJ1RWXYZ/LB1 |
Departure
| Time | 2026-04-24 15:33 |
|---|---|
| Airport | Manchester Airport (EGCC) |
Arrival
| Time | 2026-04-24 16:20 |
|---|---|
| Airport | Cornwall Airport Newquay (EGHQ) |
| Time | Latitude | Longitude | Altitude | Speed | Heading |
|---|---|---|---|---|---|
| 2026-04-24 14:58 | 53.36835 | -2.29157 | 255 ft | 0 kts | 289° |
| 2026-04-24 15:19 | 53.36834 | -2.29150 | 255 ft | 3 kts | 289° |
| 2026-04-24 15:20 | 53.36826 | -2.29114 | 255 ft | 2 kts | 290° |
| 2026-04-24 15:20 | 53.36824 | -2.29083 | 255 ft | 4 kts | 220° |
| 2026-04-24 15:20 | 53.36834 | -2.29072 | 255 ft | 0 kts | 200° |
| 2026-04-24 15:20 | 53.36810 | -2.29087 | 255 ft | 4 kts | 200° |
| 2026-04-24 15:21 | 53.36785 | -2.29102 | 255 ft | 3 kts | 200° |
| 2026-04-24 15:21 | 53.36782 | -2.29104 | 255 ft | 0 kts | 200° |
| 2026-04-24 15:27 | 53.36653 | -2.28969 | 255 ft | 16 kts | 133° |
| 2026-04-24 15:27 | 53.36456 | -2.28548 | 255 ft | 14 kts | 134° |
| 2026-04-24 15:28 | 53.36098 | -2.28055 | 255 ft | 20 kts | 137° |
| 2026-04-24 15:29 | 53.35862 | -2.27822 | 253 ft | 18 kts | 134° |
| 2026-04-24 15:30 | 53.35581 | -2.27470 | 245 ft | 9 kts | 141° |
| 2026-04-24 15:31 | 53.35169 | -2.27243 | 222 ft | 20 kts | 191° |
| 2026-04-24 15:32 | 53.34722 | -2.27916 | 225 ft | 93 kts | 231° |
| 2026-04-24 15:33 | 53.32000 | -2.33762 | 1553 ft | 196 kts | 239° |
| 2026-04-24 15:33 | 53.31751 | -2.41580 | 2916 ft | 261 kts | 284° |
| 2026-04-24 15:34 | 53.31826 | -2.47715 | 4638 ft | 273 kts | 256° |
| 2026-04-24 15:35 | 53.30196 | -2.56837 | 4984 ft | 274 kts | 250° |
| 2026-04-24 15:35 | 53.28725 | -2.62680 | 4989 ft | 272 kts | 239° |
| 2026-04-24 15:35 | 53.27576 | -2.65165 | 4995 ft | 271 kts | 222° |
| 2026-04-24 15:36 | 53.26047 | -2.67083 | 5630 ft | 275 kts | 212° |
| 2026-04-24 15:36 | 53.22888 | -2.70673 | 7507 ft | 277 kts | 214° |
| 2026-04-24 15:36 | 53.21301 | -2.72529 | 8334 ft | 281 kts | 214° |
| 2026-04-24 15:37 | 53.19691 | -2.74411 | 9146 ft | 284 kts | 214° |
| 2026-04-24 15:37 | 53.18060 | -2.76309 | 9964 ft | 288 kts | 214° |
| 2026-04-24 15:37 | 53.16399 | -2.78235 | 10638 ft | 297 kts | 214° |
| 2026-04-24 15:37 | 53.14661 | -2.80242 | 10868 ft | 319 kts | 214° |
| 2026-04-24 15:38 | 53.12797 | -2.82385 | 11378 ft | 330 kts | 214° |
| 2026-04-24 15:38 | 53.10892 | -2.84562 | 12085 ft | 334 kts | 213° |
| 2026-04-24 15:38 | 53.08824 | -2.86342 | 12804 ft | 338 kts | 200° |
| 2026-04-24 15:38 | 53.06541 | -2.87291 | 13537 ft | 341 kts | 187° |
| 2026-04-24 15:39 | 53.04162 | -2.87330 | 14238 ft | 344 kts | 173° |
| 2026-04-24 15:39 | 53.01791 | -2.86702 | 14867 ft | 347 kts | 170° |
| 2026-04-24 15:39 | 52.99400 | -2.86038 | 15514 ft | 350 kts | 170° |
| 2026-04-24 15:39 | 52.96985 | -2.85376 | 16165 ft | 353 kts | 169° |
| 2026-04-24 15:40 | 52.94592 | -2.84728 | 16836 ft | 354 kts | 169° |
| 2026-04-24 15:40 | 52.92117 | -2.84059 | 17468 ft | 358 kts | 169° |
| 2026-04-24 15:40 | 52.89683 | -2.83401 | 18081 ft | 361 kts | 169° |
| 2026-04-24 15:40 | 52.87196 | -2.82729 | 18667 ft | 364 kts | 169° |
| 2026-04-24 15:41 | 52.84680 | -2.82056 | 19176 ft | 368 kts | 169° |
| 2026-04-24 15:41 | 52.82137 | -2.81375 | 19675 ft | 372 kts | 169° |
| 2026-04-24 15:41 | 52.79569 | -2.80686 | 20170 ft | 376 kts | 169° |
| 2026-04-24 15:41 | 52.76975 | -2.79988 | 20668 ft | 380 kts | 169° |
| 2026-04-24 15:42 | 52.74349 | -2.79281 | 21153 ft | 384 kts | 169° |
| 2026-04-24 15:42 | 52.71700 | -2.78566 | 21638 ft | 389 kts | 171° |
| 2026-04-24 15:42 | 52.69011 | -2.77845 | 22103 ft | 394 kts | 171° |
| 2026-04-24 15:42 | 52.66294 | -2.77123 | 22584 ft | 398 kts | 171° |
| 2026-04-24 15:43 | 52.63551 | -2.76396 | 23086 ft | 401 kts | 171° |
| 2026-04-24 15:43 | 52.60772 | -2.75873 | 23254 ft | 401 kts | 180° |
| 2026-04-24 15:43 | 52.58065 | -2.76036 | 23282 ft | 390 kts | 184° |
| 2026-04-24 15:43 | 52.55374 | -2.76276 | 23278 ft | 386 kts | 184° |
| 2026-04-24 15:44 | 52.52692 | -2.76515 | 23277 ft | 385 kts | 184° |
| 2026-04-24 15:44 | 52.50016 | -2.76753 | 23283 ft | 385 kts | 184° |
| 2026-04-24 15:44 | 52.47343 | -2.76986 | 23285 ft | 384 kts | 186° |
| 2026-04-24 15:44 | 52.44685 | -2.77216 | 23276 ft | 382 kts | 186° |
| 2026-04-24 15:45 | 52.42042 | -2.77444 | 23278 ft | 381 kts | 186° |
| 2026-04-24 15:45 | 52.39390 | -2.77676 | 23274 ft | 381 kts | 186° |
| 2026-04-24 15:45 | 52.36742 | -2.77903 | 23279 ft | 381 kts | 186° |
| 2026-04-24 15:45 | 52.34097 | -2.78132 | 23283 ft | 381 kts | 186° |
| 2026-04-24 15:46 | 52.31446 | -2.78363 | 23280 ft | 381 kts | 186° |
| 2026-04-24 15:46 | 52.28803 | -2.78593 | 23279 ft | 381 kts | 186° |
| 2026-04-24 15:46 | 52.26158 | -2.78819 | 23277 ft | 381 kts | 186° |
| 2026-04-24 15:46 | 52.23506 | -2.79047 | 23265 ft | 381 kts | 187° |
| 2026-04-24 15:47 | 52.20892 | -2.79275 | 23274 ft | 381 kts | 187° |
| 2026-04-24 15:47 | 52.18249 | -2.79502 | 23279 ft | 381 kts | 187° |
| 2026-04-24 15:47 | 52.15598 | -2.79722 | 23275 ft | 381 kts | 187° |
| 2026-04-24 15:47 | 52.12953 | -2.79940 | 23276 ft | 381 kts | 187° |
| 2026-04-24 15:48 | 52.10310 | -2.80162 | 23273 ft | 381 kts | 187° |
| 2026-04-24 15:48 | 52.07661 | -2.80386 | 23273 ft | 381 kts | 187° |
| 2026-04-24 15:48 | 52.05012 | -2.80610 | 23269 ft | 381 kts | 187° |
| 2026-04-24 15:48 | 52.02373 | -2.80836 | 23271 ft | 381 kts | 187° |
| 2026-04-24 15:49 | 51.99724 | -2.81065 | 23262 ft | 380 kts | 187° |
| 2026-04-24 15:49 | 51.97083 | -2.81292 | 23290 ft | 380 kts | 187° |
| 2026-04-24 15:49 | 51.94485 | -2.81514 | 23295 ft | 379 kts | 187° |
| 2026-04-24 15:49 | 51.91847 | -2.81738 | 23302 ft | 379 kts | 187° |
| 2026-04-24 15:50 | 51.89219 | -2.81960 | 23305 ft | 378 kts | 187° |
| 2026-04-24 15:50 | 51.86589 | -2.82186 | 23307 ft | 378 kts | 187° |
| 2026-04-24 15:50 | 51.83969 | -2.82486 | 23311 ft | 377 kts | 189° |
| 2026-04-24 15:50 | 51.81367 | -2.82959 | 23312 ft | 376 kts | 191° |
| 2026-04-24 15:51 | 51.78781 | -2.83536 | 23315 ft | 375 kts | 192° |
| 2026-04-24 15:51 | 51.76195 | -2.84156 | 23301 ft | 375 kts | 192° |
| 2026-04-24 15:51 | 51.73616 | -2.84769 | 23309 ft | 374 kts | 192° |
| 2026-04-24 15:51 | 51.71079 | -2.85353 | 23313 ft | 374 kts | 192° |
| 2026-04-24 15:52 | 51.68496 | -2.85925 | 23318 ft | 374 kts | 191° |
| 2026-04-24 15:52 | 51.65923 | -2.86480 | 23317 ft | 374 kts | 191° |
| 2026-04-24 15:52 | 51.63343 | -2.87025 | 23313 ft | 373 kts | 191° |
| 2026-04-24 15:52 | 51.60771 | -2.87563 | 23307 ft | 373 kts | 191° |
| 2026-04-24 15:53 | 51.58200 | -2.88136 | 23298 ft | 372 kts | 194° |
| 2026-04-24 15:53 | 51.55732 | -2.89274 | 23286 ft | 367 kts | 205° |
| 2026-04-24 15:53 | 51.53480 | -2.91131 | 23269 ft | 363 kts | 216° |
| 2026-04-24 15:53 | 51.51472 | -2.93563 | 23269 ft | 361 kts | 221° |
| 2026-04-24 15:54 | 51.49508 | -2.96079 | 23266 ft | 361 kts | 220° |
| 2026-04-24 15:54 | 51.47569 | -2.98550 | 23240 ft | 361 kts | 220° |
| 2026-04-24 15:54 | 51.45595 | -3.01054 | 23241 ft | 361 kts | 220° |
| 2026-04-24 15:54 | 51.43624 | -3.03548 | 23243 ft | 361 kts | 220° |
| 2026-04-24 15:55 | 51.41651 | -3.06042 | 23244 ft | 361 kts | 220° |
| 2026-04-24 15:55 | 51.39682 | -3.08528 | 23245 ft | 361 kts | 220° |
| 2026-04-24 15:55 | 51.37708 | -3.11023 | 23245 ft | 361 kts | 220° |
| 2026-04-24 15:55 | 51.35736 | -3.13510 | 23246 ft | 361 kts | 220° |
| 2026-04-24 15:56 | 51.33791 | -3.15962 | 23246 ft | 361 kts | 220° |
| 2026-04-24 15:56 | 51.31819 | -3.18451 | 23235 ft | 361 kts | 220° |
| 2026-04-24 15:56 | 51.29849 | -3.20934 | 23235 ft | 361 kts | 220° |
| 2026-04-24 15:56 | 51.27884 | -3.23408 | 23227 ft | 361 kts | 220° |
| 2026-04-24 15:57 | 51.25906 | -3.25897 | 23229 ft | 361 kts | 220° |
| 2026-04-24 15:57 | 51.23939 | -3.28367 | 23230 ft | 361 kts | 220° |
| 2026-04-24 15:57 | 51.22628 | -3.30006 | 23230 ft | 361 kts | 220° |
| 2026-04-24 15:57 | 51.20017 | -3.33356 | 23226 ft | 360 kts | 225° |
| 2026-04-24 15:58 | 51.18353 | -3.36313 | 23224 ft | 358 kts | 235° |
| 2026-04-24 15:58 | 51.17073 | -3.39706 | 23225 ft | 357 kts | 245° |
| 2026-04-24 15:58 | 51.16188 | -3.43338 | 23223 ft | 357 kts | 250° |
| 2026-04-24 15:58 | 51.15350 | -3.47061 | 23214 ft | 356 kts | 250° |
| 2026-04-24 15:59 | 51.14520 | -3.50735 | 22948 ft | 349 kts | 250° |
| 2026-04-24 15:59 | 51.13708 | -3.54313 | 22749 ft | 338 kts | 250° |
| 2026-04-24 15:59 | 51.12912 | -3.57801 | 22429 ft | 333 kts | 250° |
| 2026-04-24 15:59 | 51.12124 | -3.61245 | 22010 ft | 330 kts | 250° |
| 2026-04-24 16:00 | 51.11606 | -3.63511 | 21725 ft | 329 kts | 250° |
| 2026-04-24 16:00 | 51.10535 | -3.68186 | 21151 ft | 326 kts | 250° |
| 2026-04-24 16:00 | 51.09758 | -3.71567 | 20761 ft | 324 kts | 249° |
| 2026-04-24 16:00 | 51.08997 | -3.74875 | 20372 ft | 322 kts | 249° |
| 2026-04-24 16:01 | 51.08232 | -3.78209 | 19979 ft | 320 kts | 249° |
| 2026-04-24 16:01 | 51.07468 | -3.81533 | 19563 ft | 320 kts | 249° |
| 2026-04-24 16:01 | 51.06963 | -3.83728 | 19337 ft | 318 kts | 249° |
| 2026-04-24 16:01 | 51.05945 | -3.88139 | 18860 ft | 316 kts | 249° |
| 2026-04-24 16:02 | 51.05188 | -3.91405 | 18471 ft | 315 kts | 248° |
| 2026-04-24 16:02 | 51.04687 | -3.93560 | 18205 ft | 314 kts | 248° |
| 2026-04-24 16:02 | 51.03685 | -3.97871 | 17619 ft | 314 kts | 248° |
| 2026-04-24 16:02 | 51.02932 | -4.01105 | 17244 ft | 311 kts | 248° |
| 2026-04-24 16:03 | 51.02185 | -4.04313 | 16921 ft | 308 kts | 248° |
| 2026-04-24 16:03 | 51.01692 | -4.06422 | 16640 ft | 308 kts | 248° |
| 2026-04-24 16:03 | 51.00691 | -4.10695 | 16187 ft | 309 kts | 248° |
| 2026-04-24 16:03 | 51.00196 | -4.12802 | 16022 ft | 309 kts | 248° |
| 2026-04-24 16:04 | 50.99446 | -4.16007 | 15767 ft | 309 kts | 248° |
| 2026-04-24 16:04 | 50.98700 | -4.19201 | 15520 ft | 308 kts | 246° |
| 2026-04-24 16:04 | 50.97955 | -4.22372 | 15273 ft | 308 kts | 248° |
| 2026-04-24 16:04 | 50.96961 | -4.26589 | 14960 ft | 310 kts | 247° |
| 2026-04-24 16:05 | 50.95420 | -4.32986 | 14480 ft | 310 kts | 245° |
| 2026-04-24 16:05 | 50.94860 | -4.35066 | 14318 ft | 309 kts | 244° |
| 2026-04-24 16:06 | 50.93083 | -4.41260 | 13824 ft | 308 kts | 243° |
| 2026-04-24 16:06 | 50.92184 | -4.44333 | 13551 ft | 307 kts | 243° |
| 2026-04-24 16:06 | 50.90119 | -4.51445 | 12952 ft | 304 kts | 243° |
| 2026-04-24 16:07 | 50.89243 | -4.54480 | 12686 ft | 303 kts | 243° |
| 2026-04-24 16:07 | 50.88655 | -4.56526 | 12511 ft | 302 kts | 243° |
| 2026-04-24 16:07 | 50.86935 | -4.62507 | 12002 ft | 299 kts | 243° |
| 2026-04-24 16:08 | 50.86073 | -4.65505 | 11746 ft | 298 kts | 243° |
| 2026-04-24 16:08 | 50.84359 | -4.71458 | 11271 ft | 296 kts | 242° |
| 2026-04-24 16:09 | 50.82657 | -4.77359 | 10780 ft | 294 kts | 242° |
| 2026-04-24 16:09 | 50.81809 | -4.80291 | 10539 ft | 292 kts | 242° |
| 2026-04-24 16:09 | 50.80964 | -4.83210 | 10297 ft | 291 kts | 242° |
| 2026-04-24 16:09 | 50.80135 | -4.86069 | 10109 ft | 288 kts | 242° |
| 2026-04-24 16:10 | 50.77622 | -4.94691 | 9702 ft | 287 kts | 242° |
| 2026-04-24 16:11 | 50.75962 | -5.00391 | 9409 ft | 279 kts | 242° |
| 2026-04-24 16:11 | 50.75175 | -5.03103 | 9267 ft | 262 kts | 242° |
| 2026-04-24 16:11 | 50.74432 | -5.05659 | 9136 ft | 252 kts | 242° |
| 2026-04-24 16:12 | 50.72966 | -5.10645 | 8877 ft | 252 kts | 242° |
| 2026-04-24 16:12 | 50.72225 | -5.13150 | 8618 ft | 251 kts | 242° |
| 2026-04-24 16:12 | 50.70752 | -5.18130 | 7918 ft | 250 kts | 242° |
| 2026-04-24 16:13 | 50.70021 | -5.20610 | 7545 ft | 249 kts | 242° |
| 2026-04-24 16:13 | 50.68560 | -5.25563 | 6793 ft | 249 kts | 242° |
| 2026-04-24 16:14 | 50.67009 | -5.30391 | 6061 ft | 245 kts | 228° |
| 2026-04-24 16:14 | 50.65737 | -5.32095 | 5757 ft | 236 kts | 206° |
| 2026-04-24 16:14 | 50.62626 | -5.32861 | 5131 ft | 225 kts | 166° |
| 2026-04-24 16:15 | 50.61645 | -5.32344 | 5047 ft | 217 kts | 154° |
| 2026-04-24 16:15 | 50.59031 | -5.29042 | 4606 ft | 203 kts | 139° |
| 2026-04-24 16:16 | 50.56895 | -5.26016 | 3706 ft | 213 kts | 138° |
| 2026-04-24 16:16 | 50.55789 | -5.24454 | 3421 ft | 215 kts | 138° |
| 2026-04-24 16:17 | 50.52485 | -5.19803 | 2873 ft | 211 kts | 137° |
| 2026-04-24 16:17 | 50.50447 | -5.16559 | 2612 ft | 209 kts | 123° |
| 2026-04-24 16:18 | 50.49007 | -5.12691 | 2013 ft | 196 kts | 121° |
| 2026-04-24 16:18 | 50.47708 | -5.09211 | 1533 ft | 173 kts | 121° |
| 2026-04-24 16:18 | 50.47131 | -5.07669 | 1292 ft | 155 kts | 121° |
| 2026-04-24 16:19 | 50.46132 | -5.05009 | 912 ft | 135 kts | 120° |
| 2026-04-24 16:19 | 50.45661 | -5.03749 | 716 ft | 133 kts | 119° |
| 2026-04-24 16:20 | 50.44721 | -5.01243 | 372 ft | 132 kts | 120° |
| 2026-04-24 16:20 | 50.44148 | -4.99708 | 350 ft | 2 kts | 109° |
| 2026-04-24 16:20 | 50.44139 | -4.99666 | 346 ft | 8 kts | 111° |
| 2026-04-24 16:21 | 50.44173 | -4.99798 | 347 ft | 9 kts | 300° |
| 2026-04-24 16:21 | 50.44236 | -4.99959 | 337 ft | 21 kts | 302° |
| 2026-04-24 16:21 | 50.44310 | -5.00154 | 334 ft | 21 kts | 301° |
| 2026-04-24 16:22 | 50.44386 | -5.00288 | 329 ft | 12 kts | 9° |
| 2026-04-24 16:22 | 50.44480 | -5.00102 | 334 ft | 10 kts | 354° |
| 2026-04-24 16:22 | 50.44527 | -5.00192 | 332 ft | 11 kts | 300° |
| 2026-04-24 16:23 | 50.44569 | -5.00306 | 327 ft | 13 kts | 300° |
| 2026-04-24 16:23 | 50.44617 | -5.00427 | 327 ft | 13 kts | 322° |
| 2026-04-24 16:23 | 50.44646 | -5.00410 | 327 ft | 2 kts | 53° |
| 2026-04-24 16:24 | 50.44653 | -5.00384 | 327 ft | 0 kts | 73° |